createdAt,value
2019-02-26T00:00:04.237Z,7.80
2019-02-26T00:01:04.257Z,7.77
2019-02-26T00:02:04.280Z,7.80
2019-02-26T00:03:04.834Z,7.80
2019-02-26T00:04:04.336Z,7.77
2019-02-26T00:05:04.356Z,7.67
2019-02-26T00:06:04.397Z,7.63
2019-02-26T00:07:04.409Z,7.70
2019-02-26T00:08:04.433Z,7.63
2019-02-26T00:09:04.462Z,7.68
2019-02-26T00:10:05.412Z,7.61
2019-02-26T00:11:06.585Z,7.63
2019-02-26T00:12:04.527Z,7.64
2019-02-26T00:13:04.560Z,7.59
2019-02-26T00:14:04.581Z,7.64
2019-02-26T00:15:04.605Z,7.64
2019-02-26T00:16:07.591Z,7.64
2019-02-26T00:17:08.669Z,7.68
2019-02-26T00:18:07.443Z,7.64
2019-02-26T00:19:05.552Z,7.56
2019-02-26T00:20:05.748Z,7.63
2019-02-26T00:21:04.992Z,7.64
2019-02-26T00:22:04.782Z,7.63
2019-02-26T00:23:04.806Z,7.64
2019-02-26T00:24:05.430Z,7.52
2019-02-26T00:25:06.253Z,7.64
2019-02-26T00:26:04.878Z,7.61
2019-02-26T00:27:05.560Z,7.58
2019-02-26T00:28:04.930Z,7.56
2019-02-26T00:29:06.723Z,7.49
2019-02-26T00:30:06.897Z,7.48
2019-02-26T00:31:05.984Z,7.54
2019-02-26T00:32:06.994Z,7.51
2019-02-26T00:33:05.317Z,7.52
2019-02-26T00:34:06.005Z,7.49
2019-02-26T00:35:05.104Z,7.58
2019-02-26T00:36:07.192Z,7.56
2019-02-26T00:37:06.318Z,7.49
2019-02-26T00:38:05.173Z,7.45
2019-02-26T00:39:07.156Z,7.56
2019-02-26T00:40:05.226Z,7.44
2019-02-26T00:41:06.082Z,7.47
2019-02-26T00:42:05.387Z,7.44
2019-02-26T00:43:06.557Z,7.39
2019-02-26T00:44:06.503Z,7.41
2019-02-26T00:45:07.841Z,7.30
2019-02-26T00:46:06.348Z,7.33
2019-02-26T00:47:06.695Z,7.34
2019-02-26T00:48:05.576Z,7.31
2019-02-26T00:49:07.507Z,7.30
2019-02-26T00:50:07.222Z,7.34
2019-02-26T00:51:05.796Z,7.36
2019-02-26T00:52:06.398Z,7.29
2019-02-26T00:53:05.542Z,7.31
2019-02-26T00:54:05.766Z,7.29
2019-02-26T00:55:07.191Z,7.29
2019-02-26T00:56:07.448Z,7.29
2019-02-26T00:57:08.568Z,7.19
2019-02-26T00:58:06.643Z,7.19
2019-02-26T00:59:05.696Z,7.22
2019-02-26T01:00:07.587Z,7.13
2019-02-26T01:01:08.206Z,7.23
2019-02-26T01:02:05.769Z,7.23
2019-02-26T01:03:06.555Z,7.23
2019-02-26T01:04:05.820Z,7.18
2019-02-26T01:05:06.314Z,7.21
2019-02-26T01:06:07.894Z,7.22
2019-02-26T01:07:07.552Z,7.21
2019-02-26T01:08:07.467Z,7.16
2019-02-26T01:09:08.619Z,7.12
2019-02-26T01:10:05.958Z,7.16
2019-02-26T01:11:08.312Z,7.11
2019-02-26T01:12:06.649Z,7.05
2019-02-26T01:13:07.285Z,7.01
2019-02-26T01:14:06.060Z,6.98
2019-02-26T01:15:07.224Z,7.01
2019-02-26T01:16:06.105Z,7.04
2019-02-26T01:17:08.145Z,6.94
2019-02-26T01:18:06.159Z,7.00
2019-02-26T01:19:06.177Z,7.03
2019-02-26T01:20:06.205Z,7.03
2019-02-26T01:21:06.242Z,6.86
2019-02-26T01:22:06.250Z,6.91
2019-02-26T01:23:06.282Z,6.98
2019-02-26T01:24:06.855Z,6.93
2019-02-26T01:25:06.323Z,6.90
2019-02-26T01:26:06.348Z,6.91
2019-02-26T01:27:06.376Z,6.88
2019-02-26T01:28:06.396Z,6.91
2019-02-26T01:29:06.833Z,6.98
2019-02-26T01:30:06.452Z,6.94
2019-02-26T01:31:07.368Z,7.01
2019-02-26T01:32:08.849Z,6.93
2019-02-26T01:33:08.025Z,6.97
2019-02-26T01:34:06.545Z,6.97
2019-02-26T01:35:08.338Z,6.93
2019-02-26T01:36:06.591Z,6.93
2019-02-26T01:37:08.207Z,6.86
2019-02-26T01:38:06.653Z,6.97
2019-02-26T01:39:09.305Z,6.90
2019-02-26T01:40:09.398Z,6.97
2019-02-26T01:41:08.622Z,6.97
2019-02-26T01:42:06.744Z,6.97
2019-02-26T01:43:06.762Z,6.97
2019-02-26T01:44:08.706Z,6.91
2019-02-26T01:45:06.809Z,6.95
2019-02-26T01:46:07.803Z,6.94
2019-02-26T01:47:06.865Z,6.90
2019-02-26T01:48:08.743Z,6.93
2019-02-26T01:49:06.911Z,6.95
2019-02-26T01:50:08.749Z,6.88
2019-02-26T01:51:06.957Z,6.86
2019-02-26T01:52:08.329Z,6.86
2019-02-26T01:53:07.009Z,6.79
2019-02-26T01:54:08.188Z,6.93
2019-02-26T01:55:07.059Z,6.85
2019-02-26T01:56:07.076Z,6.80
2019-02-26T01:57:09.155Z,6.79
2019-02-26T01:58:07.124Z,6.70
2019-02-26T01:59:07.155Z,6.79
2019-02-26T02:00:07.181Z,6.75
2019-02-26T02:01:07.203Z,6.73
2019-02-26T02:02:07.221Z,6.80
2019-02-26T02:03:07.250Z,6.80
2019-02-26T02:04:08.791Z,6.79
2019-02-26T02:05:07.299Z,6.76
2019-02-26T02:06:09.009Z,6.76
2019-02-26T02:07:07.348Z,6.76
2019-02-26T02:08:11.042Z,6.76
2019-02-26T02:09:09.320Z,6.75
2019-02-26T02:10:07.435Z,6.72
2019-02-26T02:11:09.207Z,6.58
2019-02-26T02:12:08.866Z,6.60
2019-02-26T02:13:09.163Z,6.57
2019-02-26T02:14:10.437Z,6.61
2019-02-26T02:15:08.095Z,6.60
2019-02-26T02:16:08.996Z,6.73
2019-02-26T02:17:08.495Z,6.60
2019-02-26T02:18:07.614Z,6.62
2019-02-26T02:19:07.644Z,6.65
2019-02-26T02:20:07.937Z,6.65
2019-02-26T02:21:07.679Z,6.67
2019-02-26T02:22:07.705Z,6.54
2019-02-26T02:23:07.731Z,6.58
2019-02-26T02:24:10.654Z,6.54
2019-02-26T02:25:07.778Z,6.55
2019-02-26T02:26:09.409Z,6.57
2019-02-26T02:27:07.832Z,6.54
2019-02-26T02:28:07.846Z,6.57
2019-02-26T02:29:07.872Z,6.61
2019-02-26T02:30:14.382Z,6.61
2019-02-26T02:31:07.919Z,6.54
2019-02-26T02:32:07.952Z,6.60
2019-02-26T02:33:07.974Z,6.67
2019-02-26T02:34:07.996Z,6.54
2019-02-26T02:35:10.075Z,6.51
2019-02-26T02:36:11.531Z,6.57
2019-02-26T02:37:08.070Z,6.62
2019-02-26T02:38:08.088Z,6.57
2019-02-26T02:39:12.963Z,6.62
2019-02-26T02:40:08.141Z,6.60
2019-02-26T02:41:08.166Z,6.54
2019-02-26T02:42:08.962Z,6.60
2019-02-26T02:43:10.053Z,6.58
2019-02-26T02:44:12.364Z,6.57
2019-02-26T02:45:10.458Z,6.49
2019-02-26T02:46:08.282Z,6.46
2019-02-26T02:47:09.361Z,6.46
2019-02-26T02:48:09.231Z,6.42
2019-02-26T02:49:09.812Z,6.40
2019-02-26T02:50:09.188Z,6.43
2019-02-26T02:51:10.829Z,6.37
2019-02-26T02:52:09.599Z,6.39
2019-02-26T02:53:08.451Z,6.37
2019-02-26T02:54:08.479Z,6.39
2019-02-26T02:55:10.529Z,6.31
2019-02-26T02:56:10.561Z,6.37
2019-02-26T02:57:10.022Z,6.39
2019-02-26T02:58:08.574Z,6.39
2019-02-26T02:59:08.900Z,6.42
2019-02-26T03:00:08.662Z,6.40
2019-02-26T03:01:08.644Z,6.36
2019-02-26T03:02:09.322Z,6.43
2019-02-26T03:03:08.699Z,6.34
2019-02-26T03:04:08.721Z,6.31
2019-02-26T03:05:08.748Z,6.34
2019-02-26T03:06:09.685Z,6.37
2019-02-26T03:07:08.792Z,6.31
2019-02-26T03:08:10.864Z,6.29
2019-02-26T03:09:09.142Z,6.31
2019-02-26T03:10:09.557Z,6.31
2019-02-26T03:11:08.888Z,6.34
2019-02-26T03:12:08.907Z,6.28
2019-02-26T03:13:08.939Z,6.31
2019-02-26T03:14:10.882Z,6.34
2019-02-26T03:15:10.042Z,6.29
2019-02-26T03:16:09.005Z,6.29
2019-02-26T03:17:10.948Z,6.24
2019-02-26T03:18:11.798Z,6.21
2019-02-26T03:19:09.621Z,6.20
2019-02-26T03:20:10.150Z,6.20
2019-02-26T03:21:09.125Z,6.29
2019-02-26T03:22:09.808Z,6.09
2019-02-26T03:23:11.924Z,6.21
2019-02-26T03:24:10.526Z,6.09
2019-02-26T03:25:09.223Z,6.21
2019-02-26T03:26:12.572Z,6.14
2019-02-26T03:27:09.273Z,6.09
2019-02-26T03:28:09.299Z,6.17
2019-02-26T03:29:11.951Z,6.17
2019-02-26T03:30:09.346Z,6.13
2019-02-26T03:31:09.373Z,6.15
2019-02-26T03:32:09.397Z,6.10
2019-02-26T03:33:09.420Z,6.05
2019-02-26T03:34:14.629Z,6.03
2019-02-26T03:35:10.259Z,6.05
2019-02-26T03:36:11.288Z,5.92
2019-02-26T03:37:11.047Z,5.96
2019-02-26T03:38:09.540Z,5.92
2019-02-26T03:39:09.566Z,6.03
2019-02-26T03:40:09.581Z,6.00
2019-02-26T03:41:09.605Z,5.99
2019-02-26T03:42:10.577Z,5.98
2019-02-26T03:43:10.840Z,6.02
2019-02-26T03:44:09.680Z,5.99
2019-02-26T03:45:09.717Z,6.00
2019-02-26T03:46:09.733Z,6.03
2019-02-26T03:47:09.755Z,6.02
2019-02-26T03:48:09.775Z,6.02
2019-02-26T03:49:09.805Z,6.09
2019-02-26T03:50:09.822Z,6.09
2019-02-26T03:51:09.846Z,6.10
2019-02-26T03:52:09.873Z,6.03
2019-02-26T03:53:10.137Z,6.03
2019-02-26T03:54:09.923Z,6.06
2019-02-26T03:55:12.093Z,6.07
2019-02-26T03:56:12.532Z,6.03
2019-02-26T03:57:11.367Z,6.06
2019-02-26T03:58:10.013Z,6.06
2019-02-26T03:59:52.591Z,5.95
2019-02-26T04:00:52.810Z,5.88
2019-02-26T04:01:52.643Z,5.95
2019-02-26T04:02:52.656Z,5.92
2019-02-26T04:03:54.696Z,5.92
2019-02-26T04:04:54.453Z,5.89
2019-02-26T04:05:52.731Z,5.85
2019-02-26T04:06:52.755Z,5.81
2019-02-26T04:07:55.536Z,5.80
2019-02-26T04:08:53.566Z,5.80
2019-02-26T04:09:55.315Z,5.82
2019-02-26T04:10:58.366Z,5.81
2019-02-26T04:11:53.471Z,5.75
2019-02-26T04:12:55.364Z,5.67
2019-02-26T04:13:56.128Z,5.67
2019-02-26T04:14:52.946Z,5.69
2019-02-26T04:15:56.230Z,5.72
2019-02-26T04:16:55.201Z,5.72
2019-02-26T04:17:53.021Z,5.78
2019-02-26T04:18:53.036Z,5.69
2019-02-26T04:19:53.064Z,5.66
2019-02-26T04:20:53.086Z,5.73
2019-02-26T04:21:53.113Z,5.64
2019-02-26T04:22:56.691Z,5.70
2019-02-26T04:23:53.156Z,5.77
2019-02-26T04:24:55.049Z,5.75
2019-02-26T04:25:54.081Z,5.59
2019-02-26T04:26:53.226Z,5.72
2019-02-26T04:27:53.258Z,5.63
2019-02-26T04:28:53.281Z,5.62
2019-02-26T04:29:53.298Z,5.64
2019-02-26T04:30:53.335Z,5.63
2019-02-26T04:31:57.717Z,5.67
2019-02-26T04:32:53.375Z,5.64
2019-02-26T04:33:55.839Z,5.57
2019-02-26T04:34:54.526Z,5.70
2019-02-26T04:35:55.443Z,5.66
2019-02-26T04:36:53.471Z,5.70
2019-02-26T04:37:55.528Z,5.57
2019-02-26T04:38:55.615Z,5.72
2019-02-26T04:39:53.538Z,5.70
2019-02-26T04:40:57.630Z,5.70
2019-02-26T04:41:53.588Z,5.60
2019-02-26T04:42:53.611Z,5.63
2019-02-26T04:43:54.826Z,5.70
2019-02-26T04:44:55.010Z,5.62
2019-02-26T04:45:53.683Z,5.57
2019-02-26T04:46:54.937Z,5.59
2019-02-26T04:47:56.990Z,5.67
2019-02-26T04:48:53.747Z,5.66
2019-02-26T04:49:54.414Z,5.59
2019-02-26T04:50:53.795Z,5.63
2019-02-26T04:51:53.824Z,5.69
2019-02-26T04:52:58.311Z,5.66
2019-02-26T04:53:56.047Z,5.60
2019-02-26T04:54:53.893Z,5.62
2019-02-26T04:55:53.917Z,5.62
2019-02-26T04:56:53.940Z,5.60
2019-02-26T04:57:54.259Z,5.59
2019-02-26T04:58:53.984Z,5.63
2019-02-26T04:59:55.587Z,5.55
2019-02-26T05:00:54.050Z,5.59
2019-02-26T05:01:54.969Z,5.60
2019-02-26T05:02:54.082Z,5.59
2019-02-26T05:03:54.100Z,5.63
2019-02-26T05:04:54.131Z,5.63
2019-02-26T05:05:56.532Z,5.55
2019-02-26T05:06:54.169Z,5.62
2019-02-26T05:07:54.202Z,5.59
2019-02-26T05:08:56.931Z,5.60
2019-02-26T05:09:56.897Z,5.55
2019-02-26T05:10:55.076Z,5.62
2019-02-26T05:11:54.294Z,5.59
2019-02-26T05:12:56.976Z,5.55
2019-02-26T05:13:54.337Z,5.55
2019-02-26T05:14:54.364Z,5.49
2019-02-26T05:15:54.383Z,5.60
2019-02-26T05:16:54.412Z,5.63
2019-02-26T05:17:54.436Z,5.54
2019-02-26T05:18:57.903Z,5.55
2019-02-26T05:19:54.493Z,5.54
2019-02-26T05:20:54.507Z,5.42
2019-02-26T05:21:56.793Z,5.51
2019-02-26T05:22:57.079Z,5.48
2019-02-26T05:23:55.079Z,5.55
2019-02-26T05:24:54.597Z,5.57
2019-02-26T05:25:59.872Z,5.57
2019-02-26T05:26:54.645Z,5.63
2019-02-26T05:27:54.671Z,5.55
2019-02-26T05:28:54.700Z,5.55
2019-02-26T05:29:54.922Z,5.60
2019-02-26T05:30:54.746Z,5.52
2019-02-26T05:31:55.540Z,5.51
2019-02-26T05:32:57.266Z,5.51
2019-02-26T05:33:57.149Z,5.59
2019-02-26T05:34:54.842Z,5.57
2019-02-26T05:35:54.883Z,5.48
2019-02-26T05:36:54.894Z,5.49
2019-02-26T05:37:56.207Z,5.49
2019-02-26T05:38:57.038Z,5.45
2019-02-26T05:39:54.967Z,5.44
2019-02-26T05:40:55.862Z,5.44
2019-02-26T05:41:57.920Z,5.37
2019-02-26T05:42:56.092Z,5.37
2019-02-26T05:43:57.879Z,5.41
2019-02-26T05:44:59.154Z,5.37
2019-02-26T05:45:58.114Z,5.31
2019-02-26T05:46:56.666Z,5.34
2019-02-26T05:47:58.674Z,5.34
2019-02-26T05:48:55.175Z,5.36
2019-02-26T05:49:55.197Z,5.39
2019-02-26T05:50:57.363Z,5.33
2019-02-26T05:51:56.701Z,5.30
2019-02-26T05:52:57.949Z,5.36
2019-02-26T05:53:55.294Z,5.39
2019-02-26T05:54:55.315Z,5.37
2019-02-26T05:55:56.024Z,5.37
2019-02-26T05:56:55.362Z,5.23
2019-02-26T05:57:55.386Z,5.24
2019-02-26T05:58:55.445Z,5.27
2019-02-26T05:59:55.439Z,5.20
2019-02-26T06:00:55.462Z,5.23
2019-02-26T06:01:58.246Z,5.16
2019-02-26T06:02:55.505Z,5.20
2019-02-26T06:03:55.530Z,5.10
2019-02-26T06:04:55.553Z,5.18
2019-02-26T06:05:57.823Z,5.12
2019-02-26T06:06:56.412Z,5.15
2019-02-26T06:07:55.630Z,5.10
2019-02-26T06:08:57.866Z,5.13
2019-02-26T06:09:56.377Z,5.12
2019-02-26T06:10:55.694Z,5.10
2019-02-26T06:11:55.716Z,5.15
2019-02-26T06:12:55.742Z,5.12
2019-02-26T06:13:58.310Z,5.06
2019-02-26T06:15:00.323Z,5.10
2019-02-26T06:15:58.568Z,5.08
2019-02-26T06:16:55.972Z,5.10
2019-02-26T06:17:56.019Z,5.13
2019-02-26T06:18:55.884Z,5.18
2019-02-26T06:20:01.419Z,5.18
2019-02-26T06:20:58.480Z,5.18
2019-02-26T06:21:56.659Z,5.28
2019-02-26T06:22:55.977Z,5.18
2019-02-26T06:23:55.998Z,5.30
2019-02-26T06:24:59.564Z,5.27
2019-02-26T06:25:59.049Z,5.33
2019-02-26T06:26:56.077Z,5.34
2019-02-26T06:27:56.091Z,5.30
2019-02-26T06:28:56.123Z,5.44
2019-02-26T06:29:58.182Z,5.41
2019-02-26T06:30:56.165Z,5.51
2019-02-26T06:31:56.190Z,5.54
2019-02-26T06:32:59.611Z,5.57
2019-02-26T06:33:56.338Z,5.57
2019-02-26T06:34:56.262Z,5.54
2019-02-26T06:35:57.161Z,5.59
2019-02-26T06:36:56.304Z,5.63
2019-02-26T06:37:56.333Z,5.59
2019-02-26T06:38:56.935Z,5.55
2019-02-26T06:39:57.911Z,5.57
2019-02-26T06:40:56.399Z,5.57
2019-02-26T06:41:56.420Z,5.63
2019-02-26T06:42:56.458Z,5.54
2019-02-26T06:43:56.469Z,5.63
2019-02-26T06:44:56.493Z,5.62
2019-02-26T06:45:56.516Z,5.64
2019-02-26T06:46:58.585Z,5.67
2019-02-26T06:47:58.529Z,5.60
2019-02-26T06:48:56.588Z,5.64
2019-02-26T06:49:56.610Z,5.63
2019-02-26T06:50:57.585Z,5.57
2019-02-26T06:51:56.657Z,5.63
2019-02-26T06:52:56.685Z,5.60
2019-02-26T06:53:58.695Z,5.59
2019-02-26T06:54:58.085Z,5.62
2019-02-26T06:55:58.594Z,5.60
2019-02-26T06:56:56.775Z,5.55
2019-02-26T06:57:56.805Z,5.57
2019-02-26T06:58:56.822Z,5.57
2019-02-26T06:59:59.057Z,5.55
2019-02-26T07:00:56.871Z,5.64
2019-02-26T07:01:56.892Z,5.67
2019-02-26T07:02:56.920Z,5.64
2019-02-26T07:03:56.939Z,5.67
2019-02-26T07:04:56.966Z,5.60
2019-02-26T07:05:56.990Z,5.60
2019-02-26T07:06:59.038Z,5.69
2019-02-26T07:07:59.457Z,5.70
2019-02-26T07:08:57.061Z,5.63
2019-02-26T07:09:58.080Z,5.77
2019-02-26T07:10:57.106Z,5.59
2019-02-26T07:11:57.129Z,5.72
2019-02-26T07:12:57.155Z,5.69
2019-02-26T07:13:58.862Z,5.75
2019-02-26T07:14:58.109Z,5.81
2019-02-26T07:15:57.230Z,5.84
2019-02-26T07:16:59.092Z,5.82
2019-02-26T07:18:00.132Z,5.85
2019-02-26T07:18:59.006Z,6.05
2019-02-26T07:19:57.722Z,6.03
2019-02-26T07:20:58.214Z,6.06
2019-02-26T07:21:57.372Z,6.00
2019-02-26T07:22:57.391Z,5.92
2019-02-26T07:23:58.798Z,6.00
2019-02-26T07:24:57.440Z,6.05
2019-02-26T07:25:57.462Z,6.07
2019-02-26T07:26:57.486Z,6.03
2019-02-26T07:27:58.735Z,6.06
2019-02-26T07:28:57.534Z,6.09
2019-02-26T07:29:57.558Z,6.14
2019-02-26T07:30:57.582Z,6.17
2019-02-26T07:31:58.888Z,6.42
2019-02-26T07:32:57.633Z,6.51
2019-02-26T07:33:58.193Z,6.51
2019-02-26T07:34:58.198Z,6.44
2019-02-26T07:36:02.354Z,6.36
2019-02-26T07:36:57.723Z,6.54
2019-02-26T07:37:59.480Z,6.73
2019-02-26T07:38:57.774Z,6.90
2019-02-26T07:39:57.794Z,6.95
2019-02-26T07:40:59.589Z,7.08
2019-02-26T07:41:57.842Z,6.98
2019-02-26T07:42:57.863Z,6.91
2019-02-26T07:43:59.951Z,6.82
2019-02-26T07:44:57.911Z,6.85
2019-02-26T07:45:57.937Z,6.98
2019-02-26T07:46:58.853Z,7.15
2019-02-26T07:47:59.075Z,7.03
2019-02-26T07:48:59.946Z,6.90
2019-02-26T07:50:00.829Z,6.95
2019-02-26T07:50:58.056Z,6.86
2019-02-26T07:52:00.120Z,6.93
2019-02-26T07:52:59.429Z,7.01
2019-02-26T07:53:58.396Z,7.03
2019-02-26T07:54:58.152Z,7.30
2019-02-26T07:56:03.634Z,7.63
2019-02-26T07:57:00.112Z,7.68
2019-02-26T07:57:58.226Z,7.61
2019-02-26T07:59:01.294Z,7.93
2019-02-26T07:59:58.275Z,8.34
2019-02-26T08:00:58.291Z,8.49
2019-02-26T08:01:58.721Z,8.46
2019-02-26T08:03:00.200Z,8.52
2019-02-26T08:03:58.362Z,8.49
2019-02-26T08:04:58.390Z,8.49
2019-02-26T08:05:59.439Z,8.47
2019-02-26T08:06:59.694Z,8.34
2019-02-26T08:07:58.457Z,8.39
2019-02-26T08:08:58.495Z,8.28
2019-02-26T08:09:58.515Z,8.14
2019-02-26T08:11:01.152Z,8.17
2019-02-26T08:11:58.553Z,8.01
2019-02-26T08:13:00.708Z,7.99
2019-02-26T08:13:59.247Z,8.03
2019-02-26T08:14:58.626Z,8.04
2019-02-26T08:16:00.212Z,8.04
2019-02-26T08:17:01.262Z,7.99
2019-02-26T08:18:01.298Z,8.06
2019-02-26T08:18:59.444Z,8.04
2019-02-26T08:19:58.756Z,7.99
2019-02-26T08:21:00.721Z,8.16
2019-02-26T08:21:58.798Z,8.21
2019-02-26T08:23:01.198Z,8.11
2019-02-26T08:23:58.846Z,8.21
2019-02-26T08:24:58.868Z,8.29
2019-02-26T08:26:00.485Z,8.25
2019-02-26T08:27:00.919Z,8.31
2019-02-26T08:28:01.162Z,8.34
2019-02-26T08:29:00.205Z,8.32
2019-02-26T08:30:00.847Z,8.32
2019-02-26T08:30:59.016Z,8.22
2019-02-26T08:31:59.684Z,8.22
2019-02-26T08:33:01.813Z,8.26
2019-02-26T08:33:59.093Z,8.32
2019-02-26T08:34:59.995Z,8.42
2019-02-26T08:35:59.148Z,8.46
2019-02-26T08:36:59.170Z,8.50
2019-02-26T08:37:59.595Z,8.60
2019-02-26T08:39:01.834Z,8.60
2019-02-26T08:39:59.244Z,8.69
2019-02-26T08:40:59.270Z,8.86
2019-02-26T08:41:59.287Z,8.83
2019-02-26T08:42:59.691Z,8.97
2019-02-26T08:43:59.336Z,8.97
2019-02-26T08:44:59.361Z,9.03
2019-02-26T08:45:59.396Z,9.11
2019-02-26T08:46:59.418Z,9.26
2019-02-26T08:47:59.435Z,9.32
2019-02-26T08:49:08.154Z,9.34
2019-02-26T08:50:06.471Z,9.50
2019-02-26T08:51:03.036Z,9.53
2019-02-26T08:51:59.535Z,9.55
2019-02-26T08:53:00.402Z,9.67
2019-02-26T08:53:59.583Z,9.89
2019-02-26T08:54:59.606Z,9.90
2019-02-26T08:56:01.962Z,10.26
2019-02-26T08:56:59.657Z,10.55
2019-02-26T08:57:59.682Z,11.43
2019-02-26T08:59:00.938Z,12.69
2019-02-26T08:59:59.744Z,13.97
2019-02-26T09:00:59.760Z,15.01
2019-02-26T09:01:59.785Z,15.67
2019-02-26T09:02:59.854Z,16.52
2019-02-26T09:04:00.815Z,17.12
2019-02-26T09:05:01.618Z,17.50
2019-02-26T09:06:10.884Z,17.80
2019-02-26T09:07:01.962Z,17.22
2019-02-26T09:07:59.952Z,16.91
2019-02-26T09:09:02.007Z,16.92
2019-02-26T09:10:00.012Z,16.94
2019-02-26T09:11:00.864Z,16.94
2019-02-26T09:12:01.164Z,17.07
2019-02-26T09:13:00.090Z,17.05
2019-02-26T09:14:03.963Z,17.20
2019-02-26T09:15:00.258Z,17.39
2019-02-26T09:16:01.054Z,17.54
2019-02-26T09:17:01.944Z,17.90
2019-02-26T09:18:00.279Z,18.26
2019-02-26T09:19:00.273Z,18.74
2019-02-26T09:20:09.347Z,18.87
2019-02-26T09:21:00.335Z,19.32
2019-02-26T09:22:00.391Z,19.61
2019-02-26T09:23:03.025Z,20.02
2019-02-26T09:24:02.609Z,20.34
2019-02-26T09:25:06.734Z,20.56
2019-02-26T09:26:02.570Z,20.61
2019-02-26T09:27:03.311Z,20.82
2019-02-26T09:28:00.561Z,21.08
2019-02-26T09:29:00.680Z,21.08
2019-02-26T09:30:00.670Z,21.09
2019-02-26T09:31:01.850Z,21.12
2019-02-26T09:32:00.700Z,20.90
2019-02-26T09:33:01.409Z,20.94
2019-02-26T09:34:00.764Z,21.19
2019-02-26T09:35:02.315Z,21.12
2019-02-26T09:36:00.875Z,21.28
2019-02-26T09:37:03.041Z,21.53
2019-02-26T09:38:01.069Z,21.52
2019-02-26T09:39:02.833Z,21.31
2019-02-26T09:40:02.821Z,21.19
2019-02-26T09:41:01.015Z,21.28
2019-02-26T09:42:02.242Z,21.61
2019-02-26T09:43:01.083Z,21.86
2019-02-26T09:44:03.836Z,21.94
2019-02-26T09:45:01.152Z,21.94
2019-02-26T09:46:01.197Z,21.77
2019-02-26T09:47:03.054Z,21.82
2019-02-26T09:48:01.337Z,22.08
2019-02-26T09:49:03.122Z,22.36
2019-02-26T09:50:01.337Z,22.33
2019-02-26T09:51:01.372Z,21.96
2019-02-26T09:52:02.002Z,22.05
2019-02-26T09:53:01.445Z,21.68
2019-02-26T09:54:01.483Z,21.61
2019-02-26T09:55:01.526Z,21.19
2019-02-26T09:56:01.558Z,20.94
2019-02-26T09:57:01.594Z,21.08
2019-02-26T10:01:02.637Z,21.89
2019-02-26T10:02:04.075Z,22.15
2019-02-26T10:03:03.481Z,22.22
2019-02-26T10:04:05.500Z,22.07
2019-02-26T10:05:02.787Z,22.46
2019-02-26T10:06:02.818Z,22.57
2019-02-26T10:07:04.306Z,22.78
2019-02-26T10:08:05.285Z,23.14
2019-02-26T10:09:02.934Z,23.44
2019-02-26T10:10:04.016Z,23.35
2019-02-26T10:11:04.985Z,23.37
2019-02-26T10:12:51.823Z,22.45
2019-02-26T10:13:51.202Z,21.27
2019-02-26T10:15:39.941Z,21.40
2019-02-26T10:16:38.301Z,21.89
2019-02-26T10:17:40.955Z,22.36
2019-02-26T10:18:38.375Z,22.71
2019-02-26T10:19:40.599Z,22.86
2019-02-26T10:20:38.453Z,22.46
2019-02-26T10:21:39.984Z,22.55
2019-02-26T10:22:40.413Z,22.94
2019-02-26T10:23:38.567Z,22.99
2019-02-26T10:24:40.430Z,23.14
2019-02-26T10:25:38.976Z,23.15
2019-02-26T10:26:40.630Z,22.92
2019-02-26T10:27:40.574Z,22.89
2019-02-26T10:28:41.999Z,22.46
2019-02-26T10:29:39.837Z,22.79
2019-02-26T10:30:41.492Z,22.69
2019-02-26T10:31:41.068Z,22.94
2019-02-26T10:32:38.915Z,22.94
2019-02-26T10:33:41.145Z,22.66
2019-02-26T10:34:38.991Z,22.79
2019-02-26T10:35:42.039Z,23.32
2019-02-26T10:36:43.410Z,23.34
2019-02-26T10:37:40.902Z,23.52
2019-02-26T10:38:39.145Z,23.59
2019-02-26T10:39:39.188Z,23.67
2019-02-26T10:40:50.773Z,23.62
2019-02-26T10:41:40.034Z,23.52
2019-02-26T10:42:39.905Z,23.70
2019-02-26T10:43:40.038Z,23.70
2019-02-26T10:44:39.374Z,23.60
2019-02-26T10:45:44.153Z,23.55
2019-02-26T10:46:41.817Z,23.63
2019-02-26T10:47:39.498Z,23.89
2019-02-26T10:48:41.652Z,23.81
2019-02-26T10:49:39.566Z,23.85
2019-02-26T10:50:42.526Z,23.44
2019-02-26T10:51:42.424Z,23.04
2019-02-26T10:52:39.685Z,22.99
2019-02-26T10:53:39.725Z,22.92
2019-02-26T10:54:41.162Z,23.40
2019-02-26T10:55:41.782Z,23.42
2019-02-26T10:56:42.052Z,23.50
2019-02-26T10:57:39.885Z,23.64
2019-02-26T10:58:39.922Z,23.77
2019-02-26T10:59:42.198Z,24.14
2019-02-26T11:00:40.133Z,24.52
2019-02-26T11:01:40.032Z,24.07
2019-02-26T11:02:40.720Z,24.12
2019-02-26T11:03:43.427Z,23.85
2019-02-26T11:04:41.802Z,23.45
2019-02-26T11:05:42.395Z,23.67
2019-02-26T11:07:22.794Z,23.70
2019-02-26T11:08:24.706Z,23.64
2019-02-26T11:09:26.525Z,23.56
2019-02-26T11:10:25.059Z,23.74
2019-02-26T11:11:22.988Z,24.30
2019-02-26T11:12:25.200Z,24.67
2019-02-26T11:13:25.645Z,24.09
2019-02-26T11:14:23.052Z,23.71
2019-02-26T11:15:24.491Z,23.85
2019-02-26T11:16:25.428Z,24.03
2019-02-26T11:17:23.682Z,24.34
2019-02-26T11:18:23.595Z,23.62
2019-02-26T11:19:25.283Z,23.29
2019-02-26T11:20:25.470Z,23.67
2019-02-26T11:21:23.339Z,24.03
2019-02-26T11:22:25.195Z,24.14
2019-02-26T11:23:30.825Z,24.24
2019-02-26T11:24:25.683Z,23.35
2019-02-26T11:25:24.885Z,23.10
2019-02-26T11:26:23.522Z,23.09
2019-02-26T11:27:23.560Z,23.62
2019-02-26T11:28:27.114Z,23.60
2019-02-26T11:29:23.641Z,24.07
2019-02-26T11:30:25.842Z,24.11
2019-02-26T11:31:25.482Z,24.61
2019-02-26T11:32:23.754Z,24.67
2019-02-26T11:33:23.796Z,24.19
2019-02-26T11:34:25.490Z,24.04
2019-02-26T11:35:24.619Z,23.81
2019-02-26T11:36:25.134Z,24.00
2019-02-26T11:37:24.858Z,23.62
2019-02-26T11:38:23.988Z,23.60
2019-02-26T11:39:24.036Z,23.59
2019-02-26T11:40:25.300Z,23.63
2019-02-26T11:41:26.265Z,23.90
2019-02-26T11:42:26.231Z,24.03
2019-02-26T11:43:26.930Z,24.36
2019-02-26T11:44:25.787Z,24.90
2019-02-26T11:45:24.269Z,24.78
2019-02-26T11:46:25.313Z,24.54
2019-02-26T11:47:24.343Z,24.69
2019-02-26T11:48:25.921Z,24.90
2019-02-26T11:49:24.428Z,25.07
2019-02-26T11:50:28.148Z,25.05
2019-02-26T11:51:24.500Z,25.11
2019-02-26T11:52:24.539Z,24.94
2019-02-26T11:53:24.577Z,24.86
2019-02-26T11:54:24.617Z,25.09
2019-02-26T11:55:26.852Z,25.27
2019-02-26T11:56:25.711Z,25.42
2019-02-26T11:57:24.740Z,25.38
2019-02-26T11:58:26.886Z,25.67
2019-02-26T11:59:24.814Z,25.99
2019-02-26T12:00:25.865Z,25.62
2019-02-26T12:01:27.031Z,25.22
2019-02-26T12:02:30.879Z,25.08
2019-02-26T12:03:27.314Z,25.41
2019-02-26T12:04:25.108Z,25.49
2019-02-26T12:05:32.829Z,25.82
2019-02-26T12:06:25.090Z,25.64
2019-02-26T12:07:27.212Z,25.64
2019-02-26T12:08:25.918Z,25.20
2019-02-26T12:09:25.209Z,24.59
2019-02-26T12:10:27.087Z,24.74
2019-02-26T12:11:25.287Z,25.02
2019-02-26T12:12:25.732Z,25.52
2019-02-26T12:13:27.626Z,25.51
2019-02-26T12:14:25.417Z,25.41
2019-02-26T12:15:27.075Z,25.30
2019-02-26T12:16:28.392Z,25.00
2019-02-26T12:17:25.524Z,24.69
2019-02-26T12:18:25.570Z,25.11
2019-02-26T12:19:27.841Z,25.67
2019-02-26T12:20:25.641Z,26.19
2019-02-26T12:21:27.551Z,25.96
2019-02-26T12:22:27.871Z,25.71
2019-02-26T12:23:25.765Z,25.48
2019-02-26T12:24:26.747Z,25.63
2019-02-26T12:25:25.843Z,25.88
2019-02-26T12:26:28.054Z,26.07
2019-02-26T12:27:25.916Z,25.54
2019-02-26T12:28:28.298Z,25.11
2019-02-26T12:29:28.311Z,25.00
2019-02-26T12:30:26.039Z,25.26
2019-02-26T12:31:28.423Z,25.48
2019-02-26T12:32:28.942Z,25.48
2019-02-26T12:33:26.150Z,25.62
2019-02-26T12:34:26.188Z,25.30
2019-02-26T12:35:26.226Z,25.60
2019-02-26T12:36:26.610Z,25.79
2019-02-26T12:37:26.315Z,25.67
2019-02-26T12:38:26.346Z,25.51
2019-02-26T12:39:30.628Z,25.44
2019-02-26T12:40:26.428Z,25.12
2019-02-26T12:41:26.466Z,24.82
2019-02-26T12:42:26.501Z,24.67
2019-02-26T12:43:26.544Z,24.67
2019-02-26T12:44:29.055Z,24.78
2019-02-26T12:45:28.595Z,24.90
2019-02-26T12:46:27.538Z,25.22
2019-02-26T12:47:27.794Z,25.41
2019-02-26T12:48:26.739Z,25.59
2019-02-26T12:49:26.769Z,25.78
2019-02-26T12:50:29.754Z,25.75
2019-02-26T12:51:29.497Z,25.69
2019-02-26T12:52:27.669Z,25.86
2019-02-26T12:53:26.924Z,26.04
2019-02-26T12:54:29.626Z,25.88
2019-02-26T12:56:15.180Z,26.00
2019-02-26T12:57:16.972Z,25.75
2019-02-26T12:58:17.653Z,25.67
2019-02-26T12:59:14.682Z,25.60
2019-02-26T13:00:16.572Z,25.66
2019-02-26T13:01:14.759Z,25.76
2019-02-26T13:03:09.350Z,25.26
2019-02-26T13:04:09.564Z,25.41
2019-02-26T13:05:10.097Z,25.20
2019-02-26T13:06:10.061Z,25.37
2019-02-26T13:07:09.308Z,25.30
2019-02-26T13:08:10.070Z,25.11
2019-02-26T13:09:07.609Z,24.32
2019-02-26T13:10:07.656Z,24.32
2019-02-26T13:11:07.682Z,24.34
2019-02-26T13:12:07.723Z,24.48
2019-02-26T13:13:08.033Z,24.77
2019-02-26T13:14:07.797Z,24.75
2019-02-26T13:15:09.756Z,24.87
2019-02-26T13:16:07.870Z,24.71
2019-02-26T13:17:07.922Z,24.78